createdAt,value
2019-02-25T00:01:02.362Z,83.72
2019-02-25T00:03:38.286Z,81.92
2019-02-25T00:06:12.747Z,83.80
2019-02-25T00:08:47.038Z,81.55
2019-02-25T00:11:21.417Z,82.33
2019-02-25T00:13:55.399Z,82.37
2019-02-25T00:16:29.601Z,84.50
2019-02-25T00:19:03.719Z,84.50
2019-02-25T00:21:38.262Z,84.03
2019-02-25T00:24:12.410Z,86.37
2019-02-25T00:26:47.074Z,84.75
2019-02-25T00:29:21.218Z,85.32
2019-02-25T00:31:55.636Z,84.95
2019-02-25T00:34:29.831Z,86.90
2019-02-25T00:37:03.798Z,87.55
2019-02-25T00:39:37.962Z,87.25
2019-02-25T00:42:12.235Z,85.07
2019-02-25T00:44:46.227Z,88.03
2019-02-25T00:47:21.127Z,88.30
2019-02-25T00:49:55.031Z,87.72
2019-02-25T00:52:29.378Z,89.20
2019-02-25T00:55:03.745Z,90.15
2019-02-25T00:57:38.344Z,90.70
2019-02-25T01:00:15.633Z,90.00
2019-02-25T01:02:50.160Z,92.47
2019-02-25T01:05:24.547Z,90.22
2019-02-25T01:07:59.055Z,91.02
2019-02-25T01:10:33.409Z,92.08
2019-02-25T01:13:08.993Z,92.78
2019-02-25T01:15:42.962Z,92.82
2019-02-25T01:18:17.173Z,92.92
2019-02-25T01:20:51.732Z,94.17
2019-02-25T01:23:26.139Z,95.47
2019-02-25T01:26:00.627Z,92.70
2019-02-25T01:28:34.690Z,93.52
2019-02-25T01:31:09.076Z,96.47
2019-02-25T01:33:43.287Z,95.17
2019-02-25T01:36:17.515Z,97.30
2019-02-25T01:38:51.807Z,95.77
2019-02-25T01:41:25.953Z,94.35
2019-02-25T01:43:59.972Z,96.87
2019-02-25T01:46:34.204Z,95.62
2019-02-25T01:49:08.397Z,97.95
2019-02-25T01:51:42.410Z,98.60
2019-02-25T01:54:16.735Z,98.67
2019-02-25T01:56:51.138Z,99.25
2019-02-25T01:59:25.367Z,98.95
2019-02-25T02:01:59.489Z,98.87
2019-02-25T02:04:33.874Z,96.78
2019-02-25T02:07:08.081Z,99.92
2019-02-25T02:09:42.294Z,98.75
2019-02-25T02:12:16.509Z,100.80
2019-02-25T02:14:50.699Z,99.75
2019-02-25T02:17:24.721Z,100.02
2019-02-25T02:19:59.171Z,98.40
2019-02-25T02:22:33.609Z,101.27
2019-02-25T02:25:08.067Z,102.07
2019-02-25T02:27:42.404Z,99.72
2019-02-25T02:30:18.839Z,102.15
2019-02-25T02:32:52.990Z,102.17
2019-02-25T02:35:27.282Z,102.72
2019-02-25T02:38:01.371Z,103.22
2019-02-25T02:40:35.720Z,101.10
2019-02-25T02:43:09.933Z,99.28
2019-02-25T02:45:57.169Z,100.95
2019-02-25T02:48:47.339Z,105.43
2019-02-25T02:51:21.463Z,103.55
2019-02-25T02:53:55.655Z,103.53
2019-02-25T02:56:29.830Z,102.00
2019-02-25T02:59:03.919Z,98.52
2019-02-25T03:01:38.117Z,110.05
2019-02-25T03:04:13.349Z,103.83
2019-02-25T03:06:47.593Z,106.55
2019-02-25T03:09:21.724Z,105.03
2019-02-25T03:11:55.812Z,102.72
2019-02-25T03:14:30.030Z,106.90
2019-02-25T03:17:04.262Z,112.35
2019-02-25T03:19:38.369Z,105.45
2019-02-25T03:22:12.411Z,106.32
2019-02-25T03:24:47.019Z,107.40
2019-02-25T03:27:22.324Z,104.43
2019-02-25T03:29:56.667Z,105.05
2019-02-25T03:32:30.979Z,104.65
2019-02-25T03:35:06.226Z,104.95
2019-02-25T03:37:40.473Z,105.92
2019-02-25T03:40:16.444Z,103.40
2019-02-25T03:42:50.769Z,103.38
2019-02-25T03:45:25.138Z,105.63
2019-02-25T03:47:59.341Z,104.85
2019-02-25T03:50:33.312Z,108.72
2019-02-25T03:53:08.063Z,107.70
2019-02-25T03:55:42.410Z,108.85
2019-02-25T03:58:16.712Z,110.05
2019-02-25T04:00:51.217Z,112.47
2019-02-25T04:03:25.423Z,108.95
2019-02-25T04:05:59.926Z,111.70
2019-02-25T04:08:34.046Z,112.08
2019-02-25T04:11:08.214Z,111.05
2019-02-25T04:13:42.379Z,111.32
2019-02-25T04:16:16.643Z,111.92
2019-02-25T04:18:51.971Z,109.42
2019-02-25T04:21:26.178Z,113.03
2019-02-25T04:24:00.335Z,111.30
2019-02-25T04:26:34.579Z,111.10
2019-02-25T04:29:09.040Z,113.17
2019-02-25T04:31:43.206Z,111.75
2019-02-25T04:34:17.462Z,112.70
2019-02-25T04:36:51.438Z,108.75
2019-02-25T04:39:25.713Z,112.08
2019-02-25T04:42:00.138Z,109.80
2019-02-25T04:44:34.354Z,109.22
2019-02-25T04:47:08.236Z,109.80
2019-02-25T04:49:42.299Z,108.60
2019-02-25T04:52:16.595Z,108.15
2019-02-25T04:54:50.524Z,108.17
2019-02-25T04:57:24.764Z,107.75
2019-02-25T04:59:58.960Z,108.45
2019-02-25T05:02:32.990Z,106.37
2019-02-25T05:05:07.302Z,104.87
2019-02-25T05:07:41.609Z,104.27
2019-02-25T05:10:16.244Z,107.12
2019-02-25T05:12:56.881Z,105.70
2019-02-25T05:15:31.443Z,105.27
2019-02-25T05:18:05.421Z,104.55
2019-02-25T05:20:39.624Z,104.70
2019-02-25T05:23:13.996Z,102.70
2019-02-25T05:25:48.312Z,105.40
2019-02-25T05:28:22.633Z,105.43
2019-02-25T05:30:57.117Z,102.65
2019-02-25T05:33:31.534Z,102.87
2019-02-25T05:36:05.741Z,102.38
2019-02-25T05:38:39.924Z,101.70
2019-02-25T05:41:14.224Z,100.87
2019-02-25T05:43:48.408Z,101.12
2019-02-25T05:46:22.753Z,100.53
2019-02-25T05:48:57.232Z,99.45
2019-02-25T05:51:32.566Z,98.42
2019-02-25T05:54:07.039Z,96.10
2019-02-25T05:56:41.189Z,96.05
2019-02-25T05:59:15.410Z,96.32
2019-02-25T06:01:49.831Z,95.42
2019-02-25T06:04:23.815Z,93.25
2019-02-25T06:06:58.055Z,93.67
2019-02-25T06:09:32.577Z,93.95
2019-02-25T06:12:06.707Z,93.10
2019-02-25T06:14:41.086Z,90.28
2019-02-25T06:17:15.532Z,91.25
2019-02-25T06:19:50.016Z,91.92
2019-02-25T06:22:24.170Z,89.65
2019-02-25T06:24:58.489Z,87.12
2019-02-25T06:27:33.054Z,89.03
2019-02-25T06:30:08.101Z,86.45
2019-02-25T06:32:42.313Z,86.42
2019-02-25T06:35:16.890Z,85.22
2019-02-25T06:37:51.318Z,84.70
2019-02-25T06:40:25.768Z,83.82
2019-02-25T06:43:00.264Z,84.58
2019-02-25T06:45:34.674Z,83.15
2019-02-25T06:48:09.565Z,81.00
2019-02-25T06:50:43.970Z,83.10
2019-02-25T06:53:18.318Z,83.00
2019-02-25T06:55:52.732Z,80.72
2019-02-25T06:58:26.959Z,80.17
2019-02-25T07:01:00.932Z,78.85
2019-02-25T07:03:36.367Z,79.05
2019-02-25T07:06:27.289Z,77.75
2019-02-25T07:09:17.712Z,76.47
2019-02-25T07:12:23.232Z,77.92
2019-02-25T07:15:15.982Z,77.70
2019-02-25T07:18:12.374Z,76.42
2019-02-25T07:21:14.898Z,76.12
2019-02-25T07:23:59.490Z,74.92
2019-02-25T07:26:40.456Z,74.15
2019-02-25T07:29:22.987Z,73.22
2019-02-25T07:32:15.987Z,73.50
2019-02-25T07:35:09.148Z,71.37
2019-02-25T07:38:00.565Z,71.02
2019-02-25T07:41:02.631Z,70.50
2019-02-25T07:43:55.716Z,68.78
2019-02-25T07:46:52.347Z,69.35
2019-02-25T07:50:00.802Z,68.28
2019-02-25T07:53:02.955Z,64.87
2019-02-25T07:56:02.376Z,64.90
2019-02-25T07:58:56.604Z,65.70
2019-02-25T08:01:59.644Z,65.50
2019-02-25T08:07:37.614Z,64.20
2019-02-25T08:10:22.104Z,61.75
2019-02-25T08:13:13.700Z,61.95
2019-02-25T08:16:12.690Z,62.20
2019-02-25T08:19:03.698Z,59.33
2019-02-25T08:21:56.393Z,62.53
2019-02-25T08:24:36.624Z,59.25
2019-02-25T08:27:20.393Z,59.67
2019-02-25T08:30:22.818Z,57.90
2019-02-25T08:33:27.747Z,58.55
2019-02-25T08:37:03.950Z,57.95
2019-02-25T08:40:08.133Z,57.93
2019-02-25T08:42:50.873Z,57.27
2019-02-25T08:48:08.394Z,55.48
2019-02-25T08:50:42.587Z,54.58
2019-02-25T08:53:16.723Z,55.33
2019-02-25T08:55:51.059Z,54.40
2019-02-25T08:58:25.204Z,53.87
2019-02-25T09:00:59.406Z,53.85
2019-02-25T09:03:33.453Z,54.63
2019-02-25T09:06:07.642Z,53.25
2019-02-25T09:08:44.666Z,52.33
2019-02-25T09:11:18.745Z,51.28
2019-02-25T09:13:52.937Z,51.33
2019-02-25T09:16:27.282Z,51.60
2019-02-25T09:19:01.540Z,48.63
2019-02-25T09:21:35.789Z,47.98
2019-02-25T09:24:09.722Z,46.83
2019-02-25T09:26:44.167Z,46.75
2019-02-25T09:29:18.317Z,46.13
2019-02-25T09:31:52.302Z,46.42
2019-02-25T09:34:27.018Z,45.43
2019-02-25T09:37:01.585Z,46.13
2019-02-25T09:39:38.642Z,45.33
2019-02-25T09:42:14.616Z,45.12
2019-02-25T09:44:48.834Z,46.37
2019-02-25T09:47:22.821Z,48.58
2019-02-25T09:49:57.500Z,43.95
2019-02-25T09:52:31.681Z,44.03
2019-02-25T09:55:05.926Z,43.35
2019-02-25T09:57:41.613Z,43.33
2019-02-25T10:00:17.412Z,43.02
2019-02-25T10:02:51.391Z,42.55
2019-02-25T10:05:25.641Z,43.20
2019-02-25T10:07:59.817Z,40.38
2019-02-25T10:10:33.793Z,39.53
2019-02-25T10:13:08.077Z,39.90
2019-02-25T10:15:42.306Z,39.88
2019-02-25T10:18:16.513Z,38.75
2019-02-25T10:20:50.467Z,39.20
2019-02-25T10:23:24.521Z,38.45
2019-02-25T10:25:58.850Z,38.42
2019-02-25T10:28:33.312Z,37.78
2019-02-25T10:31:07.576Z,36.35
2019-02-25T10:33:43.132Z,36.08
2019-02-25T10:36:17.258Z,36.75
2019-02-25T10:38:51.574Z,35.80
2019-02-25T10:41:27.830Z,35.38
2019-02-25T10:44:02.688Z,35.17
2019-02-25T10:46:39.000Z,35.50
2019-02-25T10:49:13.396Z,34.40
2019-02-25T10:51:47.445Z,34.50
2019-02-25T10:54:23.287Z,32.90
2019-02-25T10:57:00.999Z,32.95
2019-02-25T10:59:36.904Z,32.20
2019-02-25T11:02:30.234Z,31.87
2019-02-25T11:05:04.525Z,32.13
2019-02-25T11:07:39.837Z,32.70
2019-02-25T11:10:26.213Z,31.17
2019-02-25T11:13:02.066Z,31.68
2019-02-25T11:15:39.609Z,31.97
2019-02-25T11:18:13.902Z,32.17
2019-02-25T11:20:48.112Z,32.33
2019-02-25T11:23:22.375Z,31.50
2019-02-25T11:25:57.972Z,30.68
2019-02-25T11:28:34.361Z,31.15
2019-02-25T11:31:11.019Z,30.92
2019-02-25T11:33:46.223Z,29.27
2019-02-25T11:36:22.012Z,30.50
2019-02-25T11:38:58.010Z,29.95
2019-02-25T11:41:34.346Z,29.40
2019-02-25T11:44:09.056Z,29.98
2019-02-25T11:46:43.551Z,29.48
2019-02-25T11:49:18.651Z,29.45
2019-02-25T11:51:53.105Z,28.57
2019-02-25T11:54:27.264Z,29.30
2019-02-25T11:57:01.557Z,30.20
2019-02-25T11:59:35.945Z,28.23
2019-02-25T12:02:10.199Z,27.60
2019-02-25T12:04:44.651Z,28.50
2019-02-25T12:07:18.941Z,28.12
2019-02-25T12:09:54.176Z,27.82
2019-02-25T12:12:28.996Z,27.27
2019-02-25T12:15:03.003Z,27.50
2019-02-25T12:17:38.818Z,27.93
2019-02-25T12:20:14.198Z,26.68
2019-02-25T12:22:48.380Z,28.17
2019-02-25T12:25:24.051Z,27.95
2019-02-25T12:27:58.323Z,28.32
2019-02-25T12:30:32.750Z,27.27
2019-02-25T12:33:07.925Z,27.67
2019-02-25T12:35:42.318Z,26.48
2019-02-25T12:38:16.722Z,26.12
2019-02-25T12:40:50.932Z,26.57
2019-02-25T12:43:25.911Z,27.22
2019-02-25T12:46:00.167Z,27.50
2019-02-25T12:48:34.401Z,27.35
2019-02-25T12:51:08.433Z,27.02
2019-02-25T12:53:42.399Z,27.15
2019-02-25T12:56:16.684Z,26.62
2019-02-25T12:58:50.779Z,24.60
2019-02-25T13:01:24.810Z,24.27
2019-02-25T13:03:58.832Z,25.25
2019-02-25T13:06:34.078Z,25.40
2019-02-25T13:09:15.671Z,23.73
2019-02-25T13:11:50.894Z,23.20
2019-02-25T13:14:25.546Z,22.87
2019-02-25T13:16:59.713Z,23.12
2019-02-25T13:19:33.750Z,22.52
2019-02-25T13:22:07.975Z,23.77
2019-02-25T13:24:44.415Z,23.35
2019-02-25T13:27:18.420Z,23.57
2019-02-25T13:29:53.653Z,22.37
2019-02-25T13:32:27.739Z,20.48
2019-02-25T13:35:01.743Z,20.70
2019-02-25T13:37:36.885Z,21.65
2019-02-25T13:40:11.818Z,23.07
2019-02-25T13:42:46.100Z,22.75
2019-02-25T13:45:20.303Z,22.20
2019-02-25T13:47:54.322Z,21.55
2019-02-25T13:50:28.508Z,21.05
2019-02-25T13:53:02.532Z,21.60
2019-02-25T13:55:36.924Z,21.60
2019-02-25T13:58:12.310Z,21.45
2019-02-25T14:00:46.680Z,22.07
2019-02-25T14:03:20.937Z,22.20
2019-02-25T14:05:55.274Z,22.15
2019-02-25T14:08:29.974Z,21.37
2019-02-25T14:11:04.296Z,21.30
2019-02-25T14:13:39.431Z,21.05
2019-02-25T14:16:13.720Z,22.07
2019-02-25T14:18:47.912Z,21.00
2019-02-25T14:21:23.254Z,21.25
2019-02-25T14:23:59.819Z,20.77
2019-02-25T14:26:37.447Z,20.85
2019-02-25T14:29:12.457Z,20.30
2019-02-25T14:31:48.945Z,21.57
2019-02-25T14:34:23.170Z,22.22
2019-02-25T14:36:57.958Z,22.35
2019-02-25T14:39:36.003Z,24.35
2019-02-25T14:42:11.932Z,23.62
2019-02-25T14:44:46.010Z,24.63
2019-02-25T14:47:22.923Z,24.87
2019-02-25T14:49:56.020Z,23.75
2019-02-25T14:52:31.805Z,24.00
2019-02-25T14:55:07.109Z,23.57
2019-02-25T14:57:43.713Z,23.75
2019-02-25T15:00:24.269Z,24.18
2019-02-25T15:02:57.928Z,23.60
2019-02-25T15:05:31.926Z,22.82
2019-02-25T15:08:06.286Z,25.32
2019-02-25T15:10:41.253Z,25.00
2019-02-25T15:13:16.832Z,23.80
2019-02-25T15:15:50.923Z,24.65
2019-02-25T15:18:26.562Z,23.87
2019-02-25T15:21:04.566Z,23.52
2019-02-25T15:23:38.367Z,23.38
2019-02-25T15:26:14.942Z,24.65
2019-02-25T15:28:51.625Z,23.55
2019-02-25T15:31:24.705Z,25.08
2019-02-25T15:33:59.053Z,23.92
2019-02-25T15:36:33.591Z,26.55
2019-02-25T15:39:11.299Z,25.45
2019-02-25T15:41:48.699Z,27.25
2019-02-25T15:44:23.590Z,25.68
2019-02-25T15:47:00.219Z,24.87
2019-02-25T15:49:35.840Z,25.45
2019-02-25T15:52:10.652Z,27.40
2019-02-25T15:54:44.856Z,27.05
2019-02-25T15:57:20.615Z,26.97
2019-02-25T15:59:54.823Z,27.58
2019-02-25T16:02:29.034Z,30.32
2019-02-25T16:05:05.770Z,29.20
2019-02-25T16:07:40.207Z,33.13
2019-02-25T16:10:16.343Z,33.02
2019-02-25T16:12:55.788Z,34.67
2019-02-25T16:15:30.613Z,34.90
2019-02-25T16:18:05.184Z,33.80
2019-02-25T16:20:39.546Z,35.30
2019-02-25T16:23:14.990Z,35.50
2019-02-25T16:25:53.178Z,35.83
2019-02-25T16:28:29.016Z,34.20
2019-02-25T16:31:06.071Z,34.65
2019-02-25T16:33:41.556Z,34.50
2019-02-25T16:36:16.017Z,33.73
2019-02-25T16:38:53.180Z,32.25
2019-02-25T16:41:29.890Z,31.73
2019-02-25T16:44:04.602Z,31.57
2019-02-25T16:46:41.218Z,31.75
2019-02-25T16:49:16.080Z,30.40
2019-02-25T16:51:51.030Z,30.05
2019-02-25T16:54:25.869Z,30.12
2019-02-25T16:57:01.288Z,29.35
2019-02-25T16:59:35.734Z,30.05
2019-02-25T17:02:13.992Z,28.45
2019-02-25T17:04:46.208Z,28.60
2019-02-25T17:07:22.614Z,28.73
2019-02-25T17:09:58.644Z,28.12
2019-02-25T17:12:33.023Z,27.15
2019-02-25T17:15:09.973Z,27.52
2019-02-25T17:17:44.151Z,27.70
2019-02-25T17:20:19.144Z,26.70
2019-02-25T18:19:05.083Z,22.07
2019-02-25T18:21:43.042Z,22.17
2019-02-25T18:24:15.605Z,22.25
2019-02-25T18:26:49.856Z,21.77
2019-02-25T18:29:25.185Z,21.95
2019-02-25T18:31:59.598Z,21.33
2019-02-25T18:34:34.404Z,20.88
2019-02-25T18:37:10.886Z,20.80
2019-02-25T18:39:45.676Z,19.57
2019-02-25T18:42:20.353Z,19.95
2019-02-25T18:44:54.635Z,20.35
2019-02-25T18:47:28.963Z,19.75
2019-02-25T18:50:02.979Z,20.30
2019-02-25T18:52:38.499Z,18.42
2019-02-25T18:55:14.972Z,18.87
2019-02-25T18:57:50.329Z,18.65
2019-02-25T19:00:29.622Z,18.92
2019-02-25T19:03:04.794Z,19.45
2019-02-25T19:05:39.226Z,19.55
2019-02-25T19:08:17.706Z,19.25
2019-02-25T19:10:53.199Z,18.80
2019-02-25T19:13:28.224Z,18.98
2019-02-25T19:16:03.817Z,19.30
2019-02-25T19:18:40.947Z,18.75
2019-02-25T19:21:14.063Z,18.75
2019-02-25T19:23:48.630Z,18.87
2019-02-25T19:26:24.211Z,18.40
2019-02-25T19:28:59.090Z,18.85
2019-02-25T19:31:33.349Z,19.05
2019-02-25T19:34:07.720Z,18.20
2019-02-25T19:36:42.113Z,18.17
2019-02-25T19:39:18.744Z,19.00
2019-02-25T19:41:53.913Z,17.73
2019-02-25T19:44:29.884Z,18.10
2019-02-25T19:47:04.767Z,17.92
2019-02-25T19:49:40.808Z,17.98
2019-02-25T19:52:16.846Z,18.48
2019-02-25T19:54:51.393Z,18.52
2019-02-25T19:57:26.705Z,17.10
2019-02-25T20:00:03.020Z,17.62
2019-02-25T20:02:38.241Z,17.35
2019-02-25T20:05:14.221Z,17.12
2019-02-25T20:07:48.610Z,18.10
2019-02-25T20:10:22.952Z,18.00
2019-02-25T20:12:57.855Z,16.90
2019-02-25T20:15:32.112Z,17.00
2019-02-25T20:18:07.702Z,17.52
2019-02-25T20:20:43.531Z,16.95
2019-02-25T20:23:19.986Z,16.93
2019-02-25T20:25:55.591Z,16.90
2019-02-25T20:28:30.057Z,16.70
2019-02-25T20:31:05.788Z,17.10
2019-02-25T20:33:40.735Z,16.65
2019-02-25T20:36:17.190Z,16.45
2019-02-25T20:38:51.045Z,16.77
2019-02-25T20:41:26.730Z,15.70
2019-02-25T20:44:03.302Z,15.95
2019-02-25T20:46:38.652Z,16.40
2019-02-25T20:49:16.121Z,15.30
2019-02-25T20:51:50.059Z,16.10
2019-02-25T20:54:25.721Z,16.70
2019-02-25T20:56:59.920Z,15.32
2019-02-25T20:59:34.902Z,15.85
2019-02-25T21:02:13.757Z,15.75
2019-02-25T21:04:46.046Z,16.60
2019-02-25T21:07:20.919Z,16.35
2019-02-25T21:09:56.983Z,15.90
2019-02-25T21:12:31.847Z,15.25
2019-02-25T21:15:06.328Z,16.00
2019-02-25T21:17:40.525Z,16.10
2019-02-25T21:20:15.981Z,15.50
2019-02-25T21:22:50.662Z,15.25
2019-02-25T21:25:26.847Z,16.02
2019-02-25T21:28:03.797Z,15.53
2019-02-25T21:30:41.190Z,14.38
2019-02-25T21:33:17.359Z,15.25
2019-02-25T21:35:49.709Z,15.43
2019-02-25T21:38:25.972Z,15.32
2019-02-25T21:40:59.843Z,14.78
2019-02-25T21:43:34.093Z,14.47
2019-02-25T21:46:08.360Z,14.75
2019-02-25T21:48:42.710Z,14.60
2019-02-25T21:51:17.846Z,14.55
2019-02-25T21:53:55.600Z,14.33
2019-02-25T21:56:28.433Z,14.38
2019-02-25T21:59:02.741Z,13.70
2019-02-25T22:01:38.917Z,13.98
2019-02-25T22:04:15.155Z,13.95
2019-02-25T22:06:51.024Z,14.60
2019-02-25T22:09:36.451Z,14.60
2019-02-25T22:12:01.149Z,14.15
2019-02-25T22:14:35.290Z,14.80
2019-02-25T22:17:09.778Z,14.50
2019-02-25T22:19:45.835Z,14.47
2019-02-25T22:22:24.176Z,14.40
2019-02-25T22:24:55.782Z,13.90
2019-02-25T22:27:30.165Z,14.47
2019-02-25T22:30:06.457Z,13.90
2019-02-25T22:32:41.371Z,13.95
2019-02-25T22:35:15.833Z,14.65
2019-02-25T22:37:52.748Z,14.18
2019-02-25T22:40:27.862Z,13.98
2019-02-25T22:43:02.433Z,13.70
2019-02-25T22:45:38.023Z,14.53
2019-02-25T22:48:14.051Z,13.95
2019-02-25T22:50:51.261Z,14.35
2019-02-25T22:53:24.769Z,13.70
2019-02-25T22:55:59.068Z,13.65
2019-02-25T22:58:34.613Z,14.13
2019-02-25T23:01:18.130Z,14.00
2019-02-25T23:03:55.028Z,14.05
2019-02-25T23:06:28.685Z,13.93
2019-02-25T23:09:03.141Z,13.45
2019-02-25T23:11:41.786Z,13.85
2019-02-25T23:14:16.306Z,13.78
2019-02-25T23:16:50.869Z,14.05
2019-02-25T23:19:25.346Z,13.08
2019-02-25T23:21:59.396Z,13.93
2019-02-25T23:24:35.269Z,13.68
2019-02-25T23:27:09.710Z,13.43
2019-02-25T23:29:47.752Z,13.78
2019-02-25T23:32:20.706Z,12.85
2019-02-25T23:34:55.368Z,13.83
2019-02-25T23:37:29.971Z,13.25
2019-02-25T23:40:05.145Z,13.70
2019-02-25T23:42:42.420Z,13.72
2019-02-25T23:45:21.112Z,14.28
2019-02-25T23:47:57.675Z,14.05
2019-02-25T23:50:31.870Z,13.68
2019-02-25T23:53:06.436Z,13.78
2019-02-25T23:55:43.163Z,14.28
2019-02-25T23:58:17.823Z,14.07
